Terminal Aerodrome Forecast
Issued by NWS Charleston, WV

Current Version | Previous Version | Graphics & Text | Print | Product List | Glossary On
Versions: 1 2 3 4 5 6 7 8 9 10 11 12 13 14 15 16 17 18 19 20 21 22 23 24
653
FTUS41 KRLX 231120
TAFCRW
TAF
KCRW 231120Z 2312/2412 19004KT P6SM SCT025
     FM231500 21010G16KT P6SM OVC035
     FM232200 22008G30KT 3SM SHRA VCTS OVC060CB
     FM240600 26012KT 4SM -RA BR OVC007=

USA.gov is the U.S. government's official web portal to all federal, state and local government web resources and services.